createdAt,value
2023-04-03T00:00:42.989Z,1.02
2023-04-03T00:03:09.953Z,1.17
2023-04-03T00:05:37.178Z,1.25
2023-04-03T00:08:05.860Z,0.90
2023-04-03T00:10:32.934Z,1.30
2023-04-03T00:12:59.776Z,1.10
2023-04-03T00:15:26.622Z,1.35
2023-04-03T00:17:53.254Z,1.00
2023-04-03T00:20:20.722Z,1.20
2023-04-03T00:22:50.251Z,1.48
2023-04-03T00:25:17.286Z,1.15
2023-04-03T00:27:44.040Z,1.10
2023-04-03T00:30:12.325Z,1.10
2023-04-03T00:32:38.998Z,1.20
2023-04-03T00:35:06.422Z,1.05
2023-04-03T00:37:33.296Z,1.08
2023-04-03T00:40:00.350Z,1.00
2023-04-03T00:42:27.290Z,1.10
2023-04-03T00:44:54.241Z,1.02
2023-04-03T00:47:21.300Z,0.90
2023-04-03T00:49:48.448Z,1.10
2023-04-03T00:52:20.208Z,1.30
2023-04-03T00:54:49.414Z,0.85
2023-04-03T00:57:17.449Z,0.88
2023-04-03T00:59:45.762Z,0.90
2023-04-03T01:02:12.902Z,0.70
2023-04-03T01:04:42.436Z,0.93
2023-04-03T01:07:15.834Z,0.85
2023-04-03T01:09:43.408Z,0.70
2023-04-03T01:12:17.632Z,1.00
2023-04-03T01:14:49.188Z,0.80
2023-04-03T01:17:34.319Z,0.90
2023-04-03T01:20:20.028Z,0.93
2023-04-03T01:23:07.042Z,0.80
2023-04-03T01:25:34.194Z,0.88
2023-04-03T01:28:01.155Z,0.85
2023-04-03T01:30:32.393Z,0.80
2023-04-03T01:32:59.393Z,0.98
2023-04-03T01:35:26.399Z,0.90
2023-04-03T01:37:53.404Z,0.93
2023-04-03T01:40:23.377Z,0.80
2023-04-03T01:42:50.428Z,0.75
2023-04-03T01:45:17.171Z,0.95
2023-04-03T01:47:46.718Z,0.90
2023-04-03T01:50:13.648Z,0.80
2023-04-03T01:52:40.847Z,1.00
2023-04-03T01:55:07.952Z,0.90
2023-04-03T01:57:34.979Z,1.00
2023-04-03T02:00:01.746Z,1.17
2023-04-03T02:02:28.601Z,1.00
2023-04-03T02:04:56.272Z,0.80
2023-04-03T02:07:23.336Z,0.90
2023-04-03T02:09:49.975Z,1.00
2023-04-03T02:12:17.116Z,0.70
2023-04-03T02:14:43.923Z,1.10
2023-04-03T02:17:10.745Z,0.90
2023-04-03T02:19:37.577Z,1.10
2023-04-03T02:22:04.628Z,0.90
2023-04-03T02:24:31.989Z,1.00
2023-04-03T02:26:58.725Z,1.02
2023-04-03T02:29:25.318Z,0.80
2023-04-03T02:31:51.865Z,1.05
2023-04-03T02:34:18.655Z,1.00
2023-04-03T02:36:46.239Z,1.00
2023-04-03T02:39:12.866Z,0.85
2023-04-03T02:41:39.423Z,0.90
2023-04-03T02:44:07.179Z,0.90
2023-04-03T02:46:34.175Z,0.93
2023-04-03T02:49:00.934Z,0.90
2023-04-03T02:51:27.581Z,1.00
2023-04-03T02:53:56.574Z,1.00
2023-04-03T02:56:26.197Z,1.05
2023-04-03T02:58:52.952Z,0.93
2023-04-03T03:01:19.558Z,1.10
2023-04-03T03:03:46.332Z,0.85
2023-04-03T03:06:14.421Z,1.10
2023-04-03T03:08:41.459Z,0.90
2023-04-03T03:11:08.050Z,1.25
2023-04-03T03:13:35.520Z,1.17
2023-04-03T03:16:02.329Z,1.15
2023-04-03T03:18:29.221Z,1.27
2023-04-03T03:20:57.396Z,0.95
2023-04-03T03:23:25.074Z,1.10
2023-04-03T03:25:55.911Z,1.20
2023-04-03T03:28:22.617Z,0.98
2023-04-03T03:30:50.469Z,0.90
2023-04-03T03:33:18.442Z,1.20
2023-04-03T03:35:45.665Z,0.95
2023-04-03T03:38:15.120Z,0.80
2023-04-03T03:40:41.940Z,1.52
2023-04-03T03:43:09.122Z,0.80
2023-04-03T03:45:36.684Z,1.20
2023-04-03T03:48:04.072Z,1.15
2023-04-03T03:50:30.853Z,0.90
2023-04-03T03:52:57.944Z,1.17
2023-04-03T03:55:24.911Z,1.30
2023-04-03T03:57:51.810Z,0.95
2023-04-03T04:00:18.928Z,0.90
2023-04-03T04:02:46.320Z,1.08
2023-04-03T04:05:15.432Z,1.10
2023-04-03T04:07:42.480Z,0.82
2023-04-03T04:10:09.538Z,1.52
2023-04-03T04:12:37.048Z,0.95
2023-04-03T04:15:04.084Z,0.90
2023-04-03T04:17:31.064Z,1.02
2023-04-03T04:19:57.752Z,1.08
2023-04-03T04:22:24.711Z,0.93
2023-04-03T04:24:51.373Z,1.08
2023-04-03T04:27:18.184Z,0.73
2023-04-03T04:29:46.932Z,0.90
2023-04-03T04:32:13.770Z,1.10
2023-04-03T04:34:40.523Z,0.80
2023-04-03T04:37:07.216Z,0.93
2023-04-03T04:39:34.079Z,1.15
2023-04-03T04:42:00.775Z,1.08
2023-04-03T04:44:27.624Z,0.90
2023-04-03T04:46:54.476Z,1.00
2023-04-03T04:49:21.222Z,0.90
2023-04-03T04:51:52.074Z,0.98
2023-04-03T04:54:19.194Z,0.80
2023-04-03T04:56:46.126Z,0.90
2023-04-03T04:59:12.872Z,0.82
2023-04-03T05:01:39.840Z,0.70
2023-04-03T05:04:06.715Z,1.13
2023-04-03T05:06:34.177Z,1.00
2023-04-03T05:09:00.920Z,0.75
2023-04-03T05:11:28.162Z,1.00
2023-04-03T05:13:55.241Z,0.38
2023-04-03T05:16:22.001Z,0.82
2023-04-03T05:18:48.700Z,0.80
2023-04-03T05:21:16.098Z,0.75
2023-04-03T05:23:42.747Z,0.80
2023-04-03T05:26:09.587Z,0.68
2023-04-03T05:28:36.645Z,0.73
2023-04-03T05:31:06.856Z,0.90
2023-04-03T05:33:37.469Z,0.57
2023-04-03T05:36:08.594Z,0.60
2023-04-03T05:38:35.662Z,0.57
2023-04-03T05:41:03.531Z,0.82
2023-04-03T05:43:30.344Z,0.80
2023-04-03T05:45:57.363Z,0.60
2023-04-03T05:48:24.331Z,0.70
2023-04-03T05:50:51.035Z,0.70
2023-04-03T05:53:21.294Z,0.85
2023-04-03T05:55:48.042Z,0.63
2023-04-03T05:58:14.698Z,0.65
2023-04-03T06:00:41.237Z,0.90
2023-04-03T06:03:08.344Z,0.80
2023-04-03T06:05:40.536Z,0.80
2023-04-03T06:08:08.028Z,0.73
2023-04-03T06:10:41.103Z,0.80
2023-04-03T06:13:08.425Z,0.73
2023-04-03T06:15:35.119Z,0.82
2023-04-03T06:18:02.242Z,0.80
2023-04-03T06:20:29.170Z,0.82
2023-04-03T06:22:56.189Z,0.88
2023-04-03T06:25:22.962Z,0.80
2023-04-03T06:27:52.369Z,0.75
2023-04-03T06:30:19.434Z,0.90
2023-04-03T06:32:46.429Z,0.65
2023-04-03T06:35:13.034Z,0.90
2023-04-03T06:37:39.677Z,0.77
2023-04-03T06:40:06.949Z,1.17
2023-04-03T06:42:36.756Z,0.80
2023-04-03T06:45:03.509Z,0.68
2023-04-03T06:47:30.190Z,1.20
2023-04-03T06:49:57.616Z,0.80
2023-04-03T06:52:24.198Z,1.00
2023-04-03T06:54:53.002Z,0.90
2023-04-03T06:57:20.011Z,0.73
2023-04-03T06:59:47.272Z,0.90
2023-04-03T07:02:14.011Z,0.80
2023-04-03T07:04:41.195Z,0.93
2023-04-03T07:07:08.663Z,1.02
2023-04-03T07:09:35.539Z,0.77
2023-04-03T07:12:02.281Z,0.75
2023-04-03T07:14:28.816Z,1.02
2023-04-03T07:16:55.786Z,1.00
2023-04-03T07:19:22.580Z,1.00
2023-04-03T07:21:49.375Z,0.90
2023-04-03T07:24:16.838Z,0.93
2023-04-03T07:26:44.292Z,0.90
2023-04-03T07:29:11.065Z,1.00
2023-04-03T07:31:42.858Z,0.70
2023-04-03T07:34:09.855Z,0.65
2023-04-03T07:36:37.381Z,0.80
2023-04-03T07:39:04.314Z,0.80
2023-04-03T07:41:31.695Z,0.90
2023-04-03T07:43:58.946Z,1.00
2023-04-03T07:46:25.902Z,0.82
2023-04-03T07:48:52.842Z,0.90
2023-04-03T07:51:20.310Z,0.90
2023-04-03T07:53:47.370Z,1.00
2023-04-03T07:56:14.409Z,0.73
2023-04-03T07:58:41.296Z,1.27
2023-04-03T08:01:08.526Z,1.05
2023-04-03T08:03:39.046Z,0.93
2023-04-03T08:06:09.178Z,0.80
2023-04-03T08:08:38.894Z,1.02
2023-04-03T08:11:07.364Z,0.80
2023-04-03T08:13:35.350Z,0.90
2023-04-03T08:16:12.817Z,1.13
2023-04-03T08:18:40.413Z,1.00
2023-04-03T08:21:08.596Z,1.00
2023-04-03T08:23:35.652Z,1.00
2023-04-03T08:26:19.187Z,0.98
2023-04-03T08:28:46.237Z,1.00
2023-04-03T08:31:14.999Z,1.00
2023-04-03T08:33:41.768Z,0.90
2023-04-03T08:36:17.298Z,1.05
2023-04-03T08:38:44.474Z,1.05
2023-04-03T08:41:35.265Z,1.08
2023-04-03T08:44:14.050Z,1.15
2023-04-03T08:46:53.239Z,0.77
2023-04-03T08:49:48.776Z,1.00
2023-04-03T08:52:27.566Z,0.90
2023-04-03T08:54:56.750Z,0.82
2023-04-03T08:57:35.295Z,0.73
2023-04-03T09:00:05.810Z,0.80
2023-04-03T09:02:35.672Z,0.70
2023-04-03T09:05:04.834Z,0.85
2023-04-03T09:07:34.393Z,0.80
2023-04-03T09:10:04.350Z,0.60
2023-04-03T09:12:42.453Z,0.80
2023-04-03T09:15:35.651Z,0.90
2023-04-03T09:18:24.462Z,0.90
2023-04-03T09:20:58.391Z,0.68
2023-04-03T09:23:31.360Z,0.60
2023-04-03T09:26:02.201Z,0.70
2023-04-03T09:28:33.076Z,0.55
2023-04-03T09:31:03.494Z,0.60
2023-04-03T09:33:31.754Z,0.60
2023-04-03T09:35:58.717Z,0.80
2023-04-03T09:38:26.684Z,0.52
2023-04-03T09:41:19.723Z,0.52
2023-04-03T09:43:56.197Z,0.60
2023-04-03T09:46:27.980Z,0.55
2023-04-03T09:49:09.504Z,0.88
2023-04-03T09:51:37.192Z,0.50
2023-04-03T09:54:24.126Z,0.50
2023-04-03T09:56:51.808Z,0.65
2023-04-03T09:59:18.635Z,0.50
2023-04-03T10:01:58.996Z,0.57
2023-04-03T10:04:26.421Z,0.75
2023-04-03T10:06:54.634Z,0.60
2023-04-03T10:09:24.378Z,0.70
2023-04-03T10:12:08.017Z,0.50
2023-04-03T10:15:01.800Z,0.65
2023-04-03T10:17:33.225Z,0.70
2023-04-03T10:20:08.920Z,0.63
2023-04-03T10:22:44.259Z,0.70
2023-04-03T10:25:30.468Z,0.50
2023-04-03T10:28:01.525Z,0.77
2023-04-03T10:30:49.086Z,0.57
2023-04-03T10:33:22.140Z,0.50
2023-04-03T10:35:49.346Z,0.65
2023-04-03T10:38:16.392Z,0.80
2023-04-03T10:40:49.123Z,0.77
2023-04-03T10:43:21.995Z,0.70
2023-04-03T10:46:04.046Z,0.63
2023-04-03T10:48:30.956Z,0.60
2023-04-03T10:51:17.429Z,0.70
2023-04-03T10:53:44.036Z,0.57
2023-04-03T10:56:12.607Z,0.65
2023-04-03T10:59:08.707Z,0.63
2023-04-03T11:01:36.533Z,0.50
2023-04-03T11:04:05.369Z,0.60
2023-04-03T11:06:39.857Z,0.50
2023-04-03T11:09:12.195Z,0.60
2023-04-03T11:11:41.132Z,0.45
2023-04-03T11:14:11.278Z,0.43
2023-04-03T11:16:51.028Z,0.57
2023-04-03T11:19:24.710Z,0.65
2023-04-03T11:22:10.904Z,0.57
2023-04-03T11:24:39.648Z,0.60
2023-04-03T11:27:06.561Z,0.47
2023-04-03T11:29:38.355Z,0.50
2023-04-03T11:32:08.010Z,0.30
2023-04-03T11:34:41.870Z,0.60
2023-04-03T11:37:18.666Z,0.60
2023-04-03T11:39:52.780Z,0.73
2023-04-03T11:42:22.435Z,0.52
2023-04-03T11:44:49.268Z,0.80
2023-04-03T11:47:36.935Z,0.50
2023-04-03T11:50:07.851Z,0.55
2023-04-03T11:52:43.716Z,0.60
2023-04-03T11:55:23.585Z,0.50
2023-04-03T11:57:59.476Z,0.52
2023-04-03T12:01:01.653Z,0.50
2023-04-03T12:03:28.763Z,0.60
2023-04-03T12:05:55.744Z,0.52
2023-04-03T12:08:29.441Z,0.57
2023-04-03T12:11:09.810Z,0.60
2023-04-03T12:13:56.737Z,0.60
2023-04-03T12:16:39.001Z,0.57
2023-04-03T12:19:35.471Z,0.50
2023-04-03T12:22:10.215Z,0.50
2023-04-03T12:24:40.359Z,0.60
2023-04-03T12:27:07.484Z,0.60
2023-04-03T12:29:40.771Z,0.52
2023-04-03T12:32:14.425Z,0.60
2023-04-03T12:34:47.878Z,0.50
2023-04-03T12:37:20.400Z,0.52
2023-04-03T12:40:07.668Z,0.52
2023-04-03T12:42:41.524Z,0.60
2023-04-03T12:45:23.826Z,0.57
2023-04-03T12:47:52.089Z,0.60
2023-04-03T12:50:26.890Z,0.50
2023-04-03T12:52:58.876Z,0.70
2023-04-03T12:55:25.807Z,0.63
2023-04-03T12:57:52.508Z,0.85
2023-04-03T13:00:34.558Z,0.60
2023-04-03T13:03:03.203Z,0.65
2023-04-03T13:05:31.162Z,0.70
2023-04-03T13:08:11.162Z,0.60
2023-04-03T13:10:56.911Z,0.50
2023-04-03T13:13:24.361Z,0.80
2023-04-03T13:15:51.614Z,0.70
2023-04-03T13:18:24.932Z,0.80
2023-04-03T13:20:54.433Z,0.60
2023-04-03T13:23:22.362Z,0.50
2023-04-03T13:25:49.978Z,0.82
2023-04-03T13:28:19.445Z,0.80
2023-04-03T13:30:56.878Z,0.70
2023-04-03T13:33:25.193Z,0.70
2023-04-03T13:35:59.695Z,0.70
2023-04-03T13:38:28.878Z,0.70
2023-04-03T13:40:57.564Z,0.57
2023-04-03T13:43:25.734Z,0.50
2023-04-03T13:46:17.209Z,0.73
2023-04-03T13:48:52.400Z,0.77
2023-04-03T13:51:24.150Z,0.57
2023-04-03T13:53:54.125Z,0.52
2023-04-03T13:56:25.935Z,0.60
2023-04-03T13:59:02.863Z,0.60
2023-04-03T14:01:49.661Z,0.45
2023-04-03T14:04:18.630Z,0.63
2023-04-03T14:06:48.548Z,0.70
2023-04-03T14:09:16.159Z,0.80
2023-04-03T14:11:44.071Z,0.68
2023-04-03T14:14:13.842Z,0.60
2023-04-03T14:16:42.798Z,0.63
2023-04-03T14:19:16.342Z,0.60
2023-04-03T14:21:42.930Z,0.57
2023-04-03T14:24:43.862Z,0.68
2023-04-03T14:27:16.851Z,0.63
2023-04-03T14:29:43.645Z,0.63
2023-04-03T14:32:15.002Z,0.60
2023-04-03T14:34:42.045Z,0.70
2023-04-03T14:37:13.326Z,0.70
2023-04-03T14:39:40.054Z,0.60
2023-04-03T14:42:07.640Z,0.80
2023-04-03T14:44:34.156Z,0.57
2023-04-03T14:47:00.847Z,0.45
2023-04-03T14:49:29.967Z,0.52
2023-04-03T14:51:57.276Z,0.70
2023-04-03T14:54:28.648Z,0.60
2023-04-03T14:56:56.880Z,0.68
2023-04-03T14:59:23.638Z,0.80
2023-04-03T15:01:50.569Z,0.63
2023-04-03T15:04:21.536Z,0.70
2023-04-03T15:06:49.196Z,0.70
2023-04-03T15:09:23.371Z,0.55
2023-04-03T15:11:51.040Z,0.60
2023-04-03T15:14:29.562Z,0.70
2023-04-03T15:17:04.144Z,0.75
2023-04-03T15:19:32.511Z,0.50
2023-04-03T15:21:59.080Z,0.70
2023-04-03T15:24:25.896Z,0.90
2023-04-03T15:26:52.552Z,0.47
2023-04-03T15:29:19.233Z,0.70
2023-04-03T15:31:46.188Z,0.70
2023-04-03T15:36:40.694Z,0.70
2023-04-03T15:39:07.679Z,0.75
2023-04-03T15:41:34.516Z,0.70
2023-04-03T15:44:01.563Z,0.68
2023-04-03T15:46:31.707Z,0.80
2023-04-03T15:48:58.653Z,0.70
2023-04-03T15:51:28.556Z,0.80
2023-04-03T15:53:55.630Z,0.70
2023-04-03T15:56:22.478Z,0.75
2023-04-03T15:58:49.432Z,0.60
2023-04-03T16:01:16.095Z,0.80
2023-04-03T16:03:47.491Z,0.77
2023-04-03T16:06:14.882Z,0.70
2023-04-03T16:08:42.025Z,0.80
2023-04-03T16:11:09.381Z,0.93
2023-04-03T16:13:36.351Z,0.98
2023-04-03T16:16:03.455Z,0.70
2023-04-03T16:18:30.658Z,0.60
2023-04-03T16:20:57.618Z,0.90
2023-04-03T16:23:24.781Z,0.80
2023-04-03T16:25:51.725Z,0.70
2023-04-03T16:28:18.978Z,0.88
2023-04-03T16:30:47.057Z,1.00
2023-04-03T16:33:14.439Z,0.85
2023-04-03T16:35:43.115Z,1.20
2023-04-03T16:38:10.141Z,0.90
2023-04-03T16:40:39.774Z,0.80
2023-04-03T16:43:06.841Z,0.90
2023-04-03T16:45:33.748Z,1.02
2023-04-03T16:48:00.737Z,1.17
2023-04-03T16:50:27.924Z,1.05
2023-04-03T16:52:57.917Z,1.05
2023-04-03T16:55:24.762Z,0.80
2023-04-03T16:57:51.476Z,0.95
2023-04-03T17:00:18.273Z,1.00
2023-04-03T17:02:45.251Z,1.00
2023-04-03T17:05:12.145Z,0.98
2023-04-03T17:07:40.853Z,1.05
2023-04-03T17:10:08.005Z,1.10
2023-04-03T17:12:34.812Z,1.17
2023-04-03T17:15:01.499Z,0.80
2023-04-03T17:17:28.229Z,1.00
2023-04-03T17:19:56.422Z,0.95
2023-04-03T17:22:23.477Z,1.08
2023-04-03T17:24:50.238Z,1.20
2023-04-03T17:27:17.064Z,1.33
2023-04-03T17:29:43.822Z,1.00
2023-04-03T17:32:10.752Z,1.20
2023-04-03T17:34:37.515Z,1.15
2023-04-03T17:37:04.705Z,1.20
2023-04-03T17:39:31.843Z,1.30
2023-04-03T17:41:58.786Z,1.15
2023-04-03T17:44:26.446Z,1.50
2023-04-03T17:46:53.198Z,1.42
2023-04-03T17:49:21.083Z,1.35
2023-04-03T17:51:48.125Z,1.55
2023-04-03T17:54:15.032Z,1.45
2023-04-03T17:56:48.241Z,1.20
2023-04-03T17:59:16.571Z,1.00
2023-04-03T18:01:45.363Z,1.38
2023-04-03T18:04:13.251Z,1.17
2023-04-03T18:06:41.519Z,1.23
2023-04-03T18:09:10.395Z,1.42
2023-04-03T18:11:37.659Z,1.33
2023-04-03T18:14:05.971Z,1.10
2023-04-03T18:16:33.357Z,1.20
2023-04-03T18:19:17.579Z,1.60
2023-04-03T18:21:48.065Z,1.40
2023-04-03T18:24:16.068Z,1.50
2023-04-03T18:26:44.342Z,1.25
2023-04-03T18:29:12.141Z,1.70
2023-04-03T18:31:41.965Z,1.33
2023-04-03T18:34:09.255Z,1.58
2023-04-03T18:36:36.453Z,1.38
2023-04-03T18:39:04.317Z,1.55
2023-04-03T18:41:33.012Z,1.60
2023-04-03T18:44:02.531Z,1.42
2023-04-03T18:46:29.528Z,1.42
2023-04-03T18:48:56.734Z,1.52
2023-04-03T18:51:23.546Z,1.60
2023-04-03T18:53:50.151Z,1.63
2023-04-03T18:56:16.768Z,1.55
2023-04-03T18:58:43.579Z,1.45
2023-04-03T19:01:10.897Z,1.33
2023-04-03T19:03:38.087Z,1.40
2023-04-03T19:06:04.789Z,1.52
2023-04-03T19:08:31.751Z,1.50
2023-04-03T19:10:58.384Z,1.75
2023-04-03T19:13:25.184Z,1.45
2023-04-03T19:15:52.642Z,1.60
2023-04-03T19:18:19.430Z,1.45
2023-04-03T19:20:46.075Z,1.48
2023-04-03T19:23:13.739Z,1.48
2023-04-03T19:25:41.824Z,1.50
2023-04-03T19:28:09.132Z,1.80
2023-04-03T19:30:37.802Z,1.60
2023-04-03T19:33:04.624Z,1.40
2023-04-03T19:35:31.929Z,1.25
2023-04-03T19:37:59.132Z,1.38
2023-04-03T19:40:26.198Z,1.60
2023-04-03T19:42:52.945Z,1.77
2023-04-03T19:45:19.943Z,1.50
2023-04-03T19:47:47.419Z,1.63
2023-04-03T19:50:14.156Z,1.50
2023-04-03T19:52:40.796Z,1.55
2023-04-03T19:55:07.758Z,1.48
2023-04-03T19:57:34.468Z,1.88
2023-04-03T20:00:01.249Z,1.52
2023-04-03T20:02:27.943Z,2.00
2023-04-03T20:04:54.809Z,1.27
2023-04-03T20:07:21.583Z,1.67
2023-04-03T20:09:48.436Z,1.85
2023-04-03T20:12:15.147Z,1.95
2023-04-03T20:14:43.688Z,1.85
2023-04-03T20:17:10.275Z,1.85
2023-04-03T20:19:37.115Z,1.70
2023-04-03T20:22:04.117Z,2.17
2023-04-03T20:24:31.561Z,1.85
2023-04-03T20:26:58.757Z,2.25
2023-04-03T20:29:26.007Z,2.08
2023-04-03T20:31:56.596Z,2.40
2023-04-03T20:34:23.172Z,2.03
2023-04-03T20:36:50.224Z,1.60
2023-04-03T20:39:19.227Z,1.85
2023-04-03T20:41:46.001Z,2.20
2023-04-03T20:44:12.936Z,2.10
2023-04-03T20:46:52.202Z,2.05
2023-04-03T20:49:21.331Z,2.58
2023-04-03T20:51:48.712Z,2.00
2023-04-03T20:54:15.380Z,1.60
2023-04-03T20:56:42.881Z,1.85
2023-04-03T20:59:11.286Z,1.77
2023-04-03T21:01:38.301Z,1.90
2023-04-03T21:04:09.877Z,1.92
2023-04-03T21:06:55.646Z,2.17
2023-04-03T21:09:41.216Z,1.73
2023-04-03T21:12:26.760Z,1.63
2023-04-03T21:15:15.274Z,1.70
2023-04-03T21:18:00.849Z,2.00
2023-04-03T21:20:27.577Z,1.98
2023-04-03T21:22:54.428Z,1.70
2023-04-03T21:25:21.286Z,1.70
2023-04-03T21:27:48.165Z,1.60
2023-04-03T21:30:15.748Z,1.42
2023-04-03T21:32:42.530Z,2.03
2023-04-03T21:35:10.060Z,1.80
2023-04-03T21:37:36.804Z,1.75
2023-04-03T21:40:04.263Z,1.50
2023-04-03T21:42:31.006Z,1.60
2023-04-03T21:44:58.735Z,1.67
2023-04-03T21:47:25.563Z,1.50
2023-04-03T21:49:52.242Z,1.20
2023-04-03T21:52:19.121Z,1.65
2023-04-03T21:54:46.282Z,1.60
2023-04-03T21:57:13.618Z,1.70
2023-04-03T21:59:40.492Z,1.65
2023-04-03T22:02:07.240Z,1.63
2023-04-03T22:04:33.944Z,1.60
2023-04-03T22:07:00.958Z,1.42
2023-04-03T22:09:29.319Z,1.45
2023-04-03T22:11:56.134Z,2.05
2023-04-03T22:14:23.089Z,1.70
2023-04-03T22:16:49.833Z,1.60
2023-04-03T22:19:16.831Z,1.70
2023-04-03T22:21:43.594Z,1.42
2023-04-03T22:24:10.535Z,1.83
2023-04-03T22:26:39.682Z,1.67
2023-04-03T22:29:06.316Z,1.50
2023-04-03T22:31:33.109Z,1.50
2023-04-03T22:34:05.753Z,1.65
2023-04-03T22:36:32.504Z,1.75
2023-04-03T22:39:00.354Z,1.60
2023-04-03T22:41:27.243Z,1.25
2023-04-03T22:43:53.930Z,1.25
2023-04-03T22:46:20.843Z,1.30
2023-04-03T22:48:48.479Z,1.17
2023-04-03T22:51:15.102Z,1.60
2023-04-03T22:53:41.718Z,1.25
2023-04-03T22:56:08.812Z,1.30
2023-04-03T22:58:35.332Z,1.58
2023-04-03T23:01:10.346Z,1.42
2023-04-03T23:03:37.431Z,1.35
2023-04-03T23:06:04.963Z,1.35
2023-04-03T23:08:32.515Z,1.35
2023-04-03T23:11:00.031Z,1.50
2023-04-03T23:13:26.871Z,1.10
2023-04-03T23:15:57.022Z,1.27
2023-04-03T23:18:23.628Z,1.10
2023-04-03T23:20:52.070Z,1.27
2023-04-03T23:23:19.454Z,1.33
2023-04-03T23:25:48.110Z,1.20
2023-04-03T23:28:14.889Z,1.30
2023-04-03T23:30:43.189Z,1.33
2023-04-03T23:33:09.756Z,1.25
2023-04-03T23:35:42.611Z,1.23
2023-04-03T23:38:09.305Z,0.93
2023-04-03T23:40:36.268Z,1.23
2023-04-03T23:43:03.003Z,1.27
2023-04-03T23:45:29.748Z,1.55
2023-04-03T23:47:56.330Z,1.40
2023-04-03T23:50:23.242Z,1.40
2023-04-03T23:52:50.097Z,1.60
2023-04-03T23:55:17.565Z,1.27
2023-04-03T23:57:44.702Z,1.58
